Time;durP1;ratioP1;P1;durP2;ratioP2;P2;SDS_P1;SDS_P2;PMS_P1;PMS_P2;Temp;Humidity;BMP_temperature;BMP_pressure;BME280_temperature;BME280_humidity;BME280_pressure;Samples;Min_cycle;Max_cycle;Signal;HPM_P1;HPM_P2
2023/01/09 00:02:12;;;;;;;4.70;2.10;;;15.10;92.80;;;;;;5055251;28;20120;-69
2023/01/09 00:04:37;;;;;;;6.57;1.90;;;14.80;92.80;;;;;;5037840;28;20056;-70
2023/01/09 00:07:03;;;;;;;3.90;1.70;;;14.80;92.90;;;;;;5056317;28;20033;-70
2023/01/09 00:09:29;;;;;;;3.33;1.70;;;14.90;92.90;;;;;;5056040;28;20045;-69
2023/01/09 00:11:55;;;;;;;4.20;1.80;;;15.20;92.80;;;;;;5037559;28;20510;-70
2023/01/09 00:14:22;;;;;;;3.47;1.60;;;;;;;;;;5039201;28;20102;-68
2023/01/09 00:16:48;;;;;;;4.57;1.60;;;15.00;92.80;;;;;;5021492;28;20128;-70
2023/01/09 00:19:14;;;;;;;5.75;1.70;;;14.90;91.60;;;;;;5055698;28;20116;-70
2023/01/09 00:21:40;;;;;;;3.20;1.60;;;14.80;92.80;;;;;;5055520;28;20045;-69
2023/01/09 00:24:06;;;;;;;4.43;1.65;;;14.70;92.80;;;;;;5055804;28;20394;-69
2023/01/09 00:26:32;;;;;;;3.40;1.45;;;14.90;92.80;;;;;;5056091;28;20056;-68
2023/01/09 00:28:58;;;;;;;4.15;1.88;;;14.90;92.80;;;;;;5055378;28;20045;-70
2023/01/09 00:31:24;;;;;;;4.90;1.75;;;;;;;;;;5054937;28;20049;-60
2023/01/09 00:33:59;;;;;;;3.78;1.60;;;15.20;92.90;;;;;;5036923;28;20083;-69
2023/01/09 00:36:25;;;;;;;3.53;1.80;;;14.90;93.10;;;;;;5055386;28;20061;-69
2023/01/09 00:38:51;;;;;;;4.20;1.52;;;14.70;92.80;;;;;;5037920;28;20049;-69
2023/01/09 00:41:24;;;;;;;3.28;1.52;;;14.80;92.80;;;;;;5021033;28;20052;-70
2023/01/09 00:43:52;;;;;;;4.28;1.65;;;14.50;92.70;;;;;;5036830;28;20052;-70
2023/01/09 00:46:18;;;;;;;3.90;1.67;;;14.90;92.80;;;;;;5047018;28;20052;-69
2023/01/09 00:48:44;;;;;;;3.67;1.65;;;14.90;92.80;;;;;;5037435;28;20403;-70
2023/01/09 00:51:10;;;;;;;2.75;1.25;;;14.80;92.90;;;;;;5054976;28;20041;-69
2023/01/09 00:53:37;;;;;;;4.97;1.55;;;14.90;92.90;;;;;;5054632;28;20494;-69
2023/01/09 00:56:05;;;;;;;5.80;2.08;;;14.80;92.80;;;;;;5055168;28;20064;-69
2023/01/09 00:58:32;;;;;;;4.15;1.40;;;14.90;92.90;;;;;;5055096;28;20059;-70
2023/01/09 01:00:58;;;;;;;5.75;1.80;;;;;;;;;;5037275;28;20393;-68
2023/01/09 01:03:24;;;;;;;6.47;1.60;;;;;;;;;;5054483;28;20052;-70
2023/01/09 01:08:35;;;;;;;5.65;1.58;;;14.80;92.90;;;;;;5055079;28;20102;-69
2023/01/09 01:11:05;;;;;;;2.83;1.42;;;14.80;91.60;;;;;;5054939;28;20048;-69
2023/01/09 01:13:30;;;;;;;3.35;1.45;;;14.90;92.90;;;;;;5053493;28;20036;-70
2023/01/09 01:15:57;;;;;;;3.15;1.42;;;;;;;;;;5072185;28;20105;-69
2023/01/09 01:18:22;;;;;;;5.63;1.58;;;14.60;92.80;;;;;;5036680;28;20044;-70
2023/01/09 01:20:48;;;;;;;3.92;1.67;;;14.90;92.90;;;;;;5037031;28;20045;-70
2023/01/09 01:23:14;;;;;;;3.60;1.48;;;14.90;93.00;;;;;;5036004;28;20395;-69
2023/01/09 01:25:40;;;;;;;4.55;1.50;;;;;;;;;;5053080;28;20084;-68
2023/01/09 01:28:07;;;;;;;4.40;1.60;;;;;;;;;;5053690;28;20494;-68
2023/01/09 01:30:35;;;;;;;4.47;1.40;;;15.20;93.00;;;;;;5054241;28;20045;-70
2023/01/09 01:33:01;;;;;;;3.67;1.73;;;14.90;92.90;;;;;;5053676;28;20413;-70
2023/01/09 01:35:27;;;;;;;2.90;1.10;;;15.00;93.00;;;;;;5054775;28;20045;-69
2023/01/09 01:37:53;;;;;;;3.33;1.42;;;15.10;93.10;;;;;;5020001;28;20053;-69
2023/01/09 01:40:18;;;;;;;4.07;1.30;;;14.90;93.00;;;;;;5053917;28;20450;-70
2023/01/09 01:42:46;;;;;;;3.17;1.50;;;15.10;93.00;;;;;;5053386;28;20045;-70
2023/01/09 01:45:18;;;;;;;2.40;1.15;;;15.20;93.00;;;;;;5053281;28;20045;-70
2023/01/09 01:47:50;;;;;;;3.13;1.30;;;15.30;93.00;;;;;;5053899;28;20386;-70
2023/01/09 01:50:45;;;;;;;1.80;1.00;;;14.90;92.80;;;;;;5035966;28;20059;-70
2023/01/09 01:53:17;;;;;;;2.58;1.17;;;15.00;91.80;;;;;;5054181;28;20072;-68
2023/01/09 01:55:52;;;;;;;3.13;1.15;;;15.00;93.00;;;;;;5053388;28;20053;-70
2023/01/09 01:58:18;;;;;;;2.40;1.15;;;15.00;91.80;;;;;;5032939;28;20399;-69
2023/01/09 02:00:45;;;;;;;4.10;1.40;;;14.80;92.90;;;;;;5022427;28;20042;-70
2023/01/09 02:03:11;;;;;;;2.63;1.20;;;15.00;93.00;;;;;;5052619;28;20045;-70
2023/01/09 02:05:37;;;;;;;2.70;1.23;;;;;;;;;;5035099;28;20048;-70
2023/01/09 02:08:05;;;;;;;2.75;1.08;;;15.10;91.50;;;;;;5053389;28;20049;-70
2023/01/09 02:10:30;;;;;;;2.40;1.10;;;15.00;93.00;;;;;;5032779;28;20049;-68
2023/01/09 02:12:56;;;;;;;4.65;1.77;;;15.20;91.90;;;;;;5036018;28;20037;-68
2023/01/09 02:15:22;;;;;;;3.42;1.30;;;;;;;;;;5053248;28;20048;-68
2023/01/09 02:18:10;;;;;;;2.83;1.25;;;15.00;93.00;;;;;;5048261;28;20084;-69
2023/01/09 02:20:56;;;;;;;2.95;0.93;;;15.00;93.10;;;;;;5035645;28;20403;-70
2023/01/09 02:23:27;;;;;;;3.03;1.10;;;15.10;93.00;;;;;;5045453;28;20460;-69
2023/01/09 02:25:59;;;;;;;2.15;0.90;;;15.10;93.10;;;;;;5053321;28;20123;-70
2023/01/09 02:28:52;;;;;;;2.42;0.98;;;15.00;93.10;;;;;;5052977;28;20049;-70
2023/01/09 02:31:49;;;;;;;2.20;1.00;;;14.90;91.80;;;;;;5053991;28;20101;-69
2023/01/09 02:34:24;;;;;;;2.08;1.00;;;14.80;93.00;;;;;;5034704;28;20057;-69
2023/01/09 02:36:53;;;;;;;2.25;0.80;;;15.40;93.20;;;;;;5034336;28;20487;-69
2023/01/09 02:39:19;;;;;;;2.53;0.80;;;;;;;;;;5053273;28;20040;-69
2023/01/09 02:42:10;;;;;;;3.28;1.42;;;15.10;93.20;;;;;;5053428;28;20080;-69
2023/01/09 02:44:35;;;;;;;1.65;0.80;;;15.40;92.00;;;;;;5035262;28;20410;-69
2023/01/09 02:47:07;;;;;;;2.72;0.80;;;15.30;92.00;;;;;;5053369;28;20120;-69
2023/01/09 02:49:34;;;;;;;2.72;1.05;;;15.10;91.90;;;;;;5035569;28;20067;-69
2023/01/09 02:52:35;;;;;;;1.70;0.80;;;15.10;93.20;;;;;;5034732;28;20115;-68
2023/01/09 02:55:17;;;;;;;2.42;0.88;;;;;;;;;;5042010;28;20064;-69
2023/01/09 02:57:46;;;;;;;2.42;1.10;;;15.40;93.30;;;;;;5035169;28;20049;-69
2023/01/09 03:00:49;;;;;;;2.85;1.30;;;15.00;91.30;;;;;;5052959;28;20399;-69
2023/01/09 03:03:18;;;;;;;1.90;0.93;;;15.30;93.00;;;;;;5052810;28;20067;-69
2023/01/09 03:06:01;;;;;;;3.20;1.23;;;15.00;93.10;;;;;;5052543;28;20494;-69
2023/01/09 03:08:53;;;;;;;;;;;14.80;91.90;;;;;;5053307;28;20120;-68
2023/01/09 03:11:20;;;;;;;1.73;0.77;;;15.00;93.20;;;;;;5049703;28;20305;-69
2023/01/09 03:13:56;;;;;;;2.58;1.13;;;15.00;93.20;;;;;;5052642;28;20364;-69
2023/01/09 03:16:34;;;;;;;2.13;1.00;;;14.90;91.80;;;;;;5028380;28;20139;-69
2023/01/09 03:19:00;;;;;;;4.93;1.27;;;15.10;92.00;;;;;;5019284;28;20104;-68
2023/01/09 03:21:26;;;;;;;2.08;0.90;;;14.90;93.20;;;;;;5024047;28;20040;-69
2023/01/09 03:23:56;;;;;;;1.80;0.75;;;15.20;91.20;;;;;;5038830;28;20512;-69
2023/01/09 03:26:23;;;;;;;3.60;1.30;;;;;;;;;;5048631;28;20086;-69
2023/01/09 03:28:48;;;;;;;1.92;0.90;;;15.20;93.20;;;;;;5056247;28;20056;-68
2023/01/09 03:31:14;;;;;;;2.53;0.90;;;15.00;92.00;;;;;;5038669;28;20049;-69
2023/01/09 03:33:40;;;;;;;2.17;0.95;;;15.00;93.20;;;;;;5038682;28;20494;-69
2023/01/09 03:36:06;;;;;;;3.45;1.20;;;14.70;93.20;;;;;;5055654;28;20048;-69
2023/01/09 03:38:32;;;;;;;2.85;1.10;;;15.20;93.30;;;;;;5056308;28;20041;-69
2023/01/09 03:40:58;;;;;;;1.75;0.82;;;15.10;92.10;;;;;;5056325;28;20048;-68
2023/01/09 03:43:24;;;;;;;1.77;0.82;;;15.10;92.10;;;;;;5056333;28;20398;-69
2023/01/09 03:45:50;;;;;;;3.08;1.00;;;;;;;;;;5055833;28;20049;-69
2023/01/09 03:48:16;;;;;;;2.20;1.00;;;15.30;93.40;;;;;;5056353;28;20051;-68
2023/01/09 03:50:44;;;;;;;2.80;1.30;;;15.10;93.20;;;;;;5055435;28;20041;-70
2023/01/09 03:53:12;;;;;;;3.80;1.15;;;;;;;;;;5056019;28;20076;-69
2023/01/09 03:55:38;;;;;;;4.28;1.30;;;15.30;93.30;;;;;;5055275;28;20052;-69
2023/01/09 03:58:04;;;;;;;2.28;1.00;;;15.00;93.40;;;;;;5055869;28;20057;-68
2023/01/09 04:00:30;;;;;;;3.30;1.05;;;15.10;93.40;;;;;;5055960;28;20091;-69
2023/01/09 04:02:56;;;;;;;3.28;0.85;;;14.90;93.30;;;;;;5037841;28;20478;-69
2023/01/09 04:05:21;;;;;;;2.92;1.05;;;15.00;93.40;;;;;;5056067;28;20116;-69
2023/01/09 04:07:47;;;;;;;3.42;1.15;;;15.10;93.40;;;;;;5054611;28;20579;-68
2023/01/09 04:10:13;;;;;;;2.67;1.23;;;15.00;93.30;;;;;;5037395;28;20040;-69
2023/01/09 04:12:39;;;;;;;3.20;1.30;;;15.10;93.30;;;;;;5037991;28;20086;-69
2023/01/09 04:15:05;;;;;;;3.85;1.20;;;14.60;93.20;;;;;;5055544;28;20080;-70
2023/01/09 04:17:31;;;;;;;3.40;1.42;;;15.00;93.30;;;;;;5055629;28;20055;-68
2023/01/09 04:19:58;;;;;;;4.40;1.30;;;15.00;92.10;;;;;;5055816;28;20124;-69
2023/01/09 04:22:24;;;;;;;2.63;1.30;;;15.10;93.30;;;;;;5054656;28;20060;-68
2023/01/09 04:24:50;;;;;;;3.35;1.20;;;14.90;93.30;;;;;;5050537;28;20040;-70
2023/01/09 04:27:16;;;;;;;4.15;1.20;;;;;;;;;;5054464;28;20045;-70
2023/01/09 04:29:42;;;;;;;4.68;1.33;;;;;;;;;;5055084;28;20140;-69
2023/01/09 04:32:08;;;;;;;2.55;1.10;;;15.00;92.10;;;;;;5055072;28;20057;-69
2023/01/09 04:34:34;;;;;;;3.65;1.20;;;;;;;;;;5055348;28;20092;-70
2023/01/09 04:37:00;;;;;;;4.20;1.33;;;;;;;;;;5054616;28;20437;-69
2023/01/09 04:39:26;;;;;;;4.93;1.40;;;;;;;;;;5036762;28;20102;-69
2023/01/09 04:41:52;;;;;;;4.00;1.27;;;15.10;92.10;;;;;;5036798;28;20147;-69
2023/01/09 04:44:25;;;;;;;2.78;1.17;;;14.80;93.50;;;;;;5037675;28;20475;-69
2023/01/09 04:46:50;;;;;;;;;;;15.00;92.10;;;;;;5017637;28;20037;-69
2023/01/09 04:49:17;;;;;;;3.75;1.50;;;;;;;;;;5034428;28;20420;-69
2023/01/09 04:51:42;;;;;;;3.10;1.20;;;14.90;93.30;;;;;;5034929;28;20079;-70
2023/01/09 04:54:09;;;;;;;3.60;1.15;;;;;;;;;;5046224;28;20123;-70
2023/01/09 04:56:35;;;;;;;1.70;1.10;;;15.00;93.30;;;;;;5035737;28;20044;-69
2023/01/09 04:59:01;;;;;;;3.70;1.40;;;14.90;93.40;;;;;;5020426;28;20044;-69
2023/01/09 05:01:27;;;;;;;2.45;1.20;;;;;;;;;;5054582;28;20045;-69
2023/01/09 05:03:53;;;;;;;3.30;1.50;;;;;;;;;;5054956;28;20044;-70
2023/01/09 05:06:19;;;;;;;4.55;1.55;;;;;;;;;;5054082;28;20084;-69
2023/01/09 05:08:45;;;;;;;4.25;1.58;;;;;;;;;;5033392;28;20124;-71
2023/01/09 05:11:11;;;;;;;3.65;1.20;;;14.90;93.30;;;;;;5017860;28;20103;-70
2023/01/09 05:13:37;;;;;;;3.33;1.42;;;14.80;93.30;;;;;;5036538;28;20044;-70
2023/01/09 05:16:03;;;;;;;5.63;1.55;;;14.50;93.20;;;;;;5053959;28;20099;-70
2023/01/09 05:18:28;;;;;;;3.60;1.55;;;15.00;92.20;;;;;;5020247;28;20076;-68
2023/01/09 05:20:54;;;;;;;3.47;1.30;;;14.60;92.10;;;;;;5054322;28;20045;-69
2023/01/09 05:23:20;;;;;;;4.65;1.60;;;;;;;;;;5054354;28;20063;-70
2023/01/09 05:25:46;;;;;;;5.13;1.92;;;14.90;93.30;;;;;;5053825;28;20055;-70
2023/01/09 05:28:12;;;;;;;4.47;1.95;;;;;;;;;;5036198;28;20049;-70
2023/01/09 05:30:38;;;;;;;3.78;1.45;;;14.50;93.20;;;;;;5064828;28;20453;-68
2023/01/09 05:33:04;;;;;;;4.22;1.60;;;14.80;93.50;;;;;;5054119;28;20049;-70
2023/01/09 05:35:30;;;;;;;4.30;1.90;;;14.70;93.30;;;;;;5053695;28;20041;-70
2023/01/09 05:37:55;;;;;;;3.80;1.80;;;15.00;93.30;;;;;;5036096;28;20060;-70
2023/01/09 05:40:21;;;;;;;4.28;2.00;;;14.50;92.00;;;;;;5052872;28;20113;-68
2023/01/09 05:42:47;;;;;;;6.00;1.83;;;14.60;92.00;;;;;;5035487;28;20075;-69
2023/01/09 05:45:13;;;;;;;4.80;1.77;;;;;;;;;;5053483;28;20041;-69
2023/01/09 05:47:39;;;;;;;4.68;1.92;;;;;;;;;;5054135;28;20037;-70
2023/01/09 05:50:05;;;;;;;4.93;2.08;;;14.80;93.30;;;;;;5053539;28;20053;-70
2023/01/09 05:52:31;;;;;;;5.05;2.40;;;14.80;93.30;;;;;;5054185;28;20391;-70
2023/01/09 05:54:57;;;;;;;4.95;2.20;;;14.70;93.50;;;;;;5053599;28;20053;-70
2023/01/09 05:57:23;;;;;;;5.10;2.35;;;14.90;93.30;;;;;;5053144;28;20414;-68
2023/01/09 05:59:49;;;;;;;5.28;2.35;;;14.70;93.20;;;;;;5053791;28;20041;-70
2023/01/09 06:02:14;;;;;;;3.90;1.92;;;14.60;93.20;;;;;;5053425;28;20514;-70
2023/01/09 06:04:42;;;;;;;5.57;2.35;;;14.40;93.20;;;;;;5053344;28;20395;-70
2023/01/09 06:07:08;;;;;;;6.18;2.58;;;14.60;93.40;;;;;;5053446;28;20482;-69
2023/01/09 06:09:35;;;;;;;5.75;2.53;;;;;;;;;;5032025;28;20400;-70
2023/01/09 06:12:01;;;;;;;5.70;2.30;;;;;;;;;;5049538;28;20060;-70
2023/01/09 06:14:27;;;;;;;4.82;2.63;;;;;;;;;;5052895;28;20045;-70
2023/01/09 06:16:53;;;;;;;5.30;2.53;;;14.60;93.30;;;;;;5053222;28;20052;-69
2023/01/09 06:19:18;;;;;;;6.30;2.75;;;14.60;93.30;;;;;;5030730;28;20045;-68
2023/01/09 06:21:44;;;;;;;6.82;2.97;;;14.60;93.20;;;;;;5053712;28;20254;-68
2023/01/09 06:24:10;;;;;;;9.70;3.50;;;14.70;93.20;;;;;;5051941;28;20395;-68
2023/01/09 06:26:36;;;;;;;5.40;3.00;;;14.80;93.10;;;;;;5035718;28;20053;-69
2023/01/09 06:29:01;;;;;;;7.60;3.60;;;14.80;92.00;;;;;;5052567;28;20052;-69
2023/01/09 06:31:27;;;;;;;6.90;3.35;;;14.70;93.30;;;;;;5053185;28;20044;-69
2023/01/09 06:33:53;;;;;;;6.25;3.15;;;14.50;93.20;;;;;;5052642;28;20045;-69
2023/01/09 06:36:20;;;;;;;6.25;3.53;;;14.60;93.20;;;;;;5018936;28;20049;-68
2023/01/09 06:38:46;;;;;;;6.40;3.65;;;14.50;93.30;;;;;;5035650;28;20040;-68
2023/01/09 06:41:12;;;;;;;9.00;3.65;;;14.50;92.00;;;;;;5032022;28;20545;-68
2023/01/09 06:43:38;;;;;;;6.63;3.72;;;14.80;93.20;;;;;;5033518;28;20041;-68
2023/01/09 06:46:07;;;;;;;7.18;3.70;;;14.40;93.20;;;;;;5033812;28;20497;-70
2023/01/09 06:48:33;;;;;;;6.65;3.55;;;14.60;93.20;;;;;;5035688;28;20045;-68
2023/01/09 06:50:58;;;;;;;8.05;3.88;;;14.90;92.00;;;;;;5054757;28;20037;-70
2023/01/09 06:53:24;;;;;;;7.05;3.92;;;14.80;92.00;;;;;;5039778;28;20456;-69
2023/01/09 06:55:50;;;;;;;8.07;4.10;;;14.60;93.20;;;;;;5057291;28;20044;-69
2023/01/09 06:58:16;;;;;;;8.38;4.40;;;14.70;93.20;;;;;;5056520;28;20045;-69
2023/01/09 07:00:42;;;;;;;7.72;4.30;;;14.50;93.10;;;;;;5055265;28;20037;-69
2023/01/09 07:03:08;;;;;;;6.43;3.78;;;14.70;91.90;;;;;;5056537;28;20055;-68
2023/01/09 07:05:38;;;;;;;7.72;4.55;;;14.70;93.20;;;;;;5039547;28;20045;-70
2023/01/09 07:08:04;;;;;;;8.32;3.97;;;14.80;93.30;;;;;;5022978;28;20048;-68
2023/01/09 07:10:30;;;;;;;7.38;4.30;;;14.70;93.20;;;;;;5038507;28;20047;-70
2023/01/09 07:12:55;;;;;;;6.40;3.90;;;14.70;93.20;;;;;;5057028;28;20041;-68
2023/01/09 07:15:21;;;;;;;6.57;4.22;;;14.70;93.20;;;;;;5038732;28;20435;-68
2023/01/09 07:17:49;;;;;;;6.40;3.72;;;14.60;92.00;;;;;;5057528;28;20041;-68
2023/01/09 07:20:16;;;;;;;7.30;4.07;;;14.70;93.30;;;;;;5056825;28;20072;-68
2023/01/09 07:22:43;;;;;;;9.25;4.03;;;;;;;;;;5038635;28;20421;-69
2023/01/09 07:25:09;;;;;;;7.53;4.10;;;14.60;93.20;;;;;;5056441;28;20052;-69
2023/01/09 07:27:35;;;;;;;7.70;4.38;;;;;;;;;;5056881;28;20045;-68
2023/01/09 07:30:01;;;;;;;8.55;4.15;;;14.70;93.10;;;;;;5054110;28;20064;-68
2023/01/09 07:32:27;;;;;;;7.10;4.00;;;14.60;93.10;;;;;;5055854;28;20045;-70
2023/01/09 07:34:52;;;;;;;6.72;4.10;;;14.60;93.20;;;;;;5056336;28;20478;-69
2023/01/09 07:37:18;;;;;;;8.55;4.25;;;14.60;93.20;;;;;;5022585;28;20040;-68
2023/01/09 07:39:44;;;;;;;7.75;4.35;;;14.80;93.40;;;;;;5038246;28;20037;-69
2023/01/09 07:42:10;;;;;;;7.18;3.90;;;14.30;93.00;;;;;;5021060;28;20065;-68
2023/01/09 07:44:36;;;;;;;7.22;4.00;;;14.60;93.00;;;;;;5052906;28;20112;-72
2023/01/09 07:47:04;;;;;;;7.32;3.83;;;14.70;93.00;;;;;;5055977;28;20040;-71
2023/01/09 07:49:30;;;;;;;6.28;3.65;;;14.60;93.10;;;;;;5071748;28;20045;-74
2023/01/09 07:51:57;;;;;;;7.05;3.85;;;;;;;;;;5018518;28;20033;-73
2023/01/09 07:54:24;;;;;;;8.15;4.28;;;;;;;;;;5019150;28;20088;-73
2023/01/09 07:56:50;;;;;;;8.48;4.05;;;;;;;;;;5039048;28;20037;-74
2023/01/09 07:59:17;;;;;;;6.03;3.60;;;;;;;;;;5055688;28;20068;-73
2023/01/09 08:01:43;;;;;;;6.18;3.58;;;;;;;;;;5053206;28;20052;-73
2023/01/09 08:04:09;;;;;;;7.50;3.25;;;;;;;;;;5032596;28;20056;-70
2023/01/09 08:06:36;;;;;;;7.80;3.67;;;;;;;;;;5038180;28;20041;-69
2023/01/09 08:09:02;;;;;;;8.25;3.40;;;;;;;;;;5055747;28;20047;-70
2023/01/09 08:11:28;;;;;;;7.35;3.33;;;;;;;;;;5055485;28;20045;-70
2023/01/09 08:13:54;;;;;;;5.55;3.15;;;;;;;;;;5055975;28;20390;-69
2023/01/09 08:16:20;;;;;;;6.88;3.55;;;14.90;92.10;;;;;;5035705;28;20046;-70
2023/01/09 08:18:46;;;;;;;7.13;3.40;;;15.00;93.30;;;;;;5037045;28;20057;-69
2023/01/09 08:21:13;;;;;;;6.85;2.90;;;15.00;93.40;;;;;;5055970;28;20044;-69
2023/01/09 08:23:39;;;;;;;8.32;3.15;;;;;;;;;;5055412;28;20045;-70
2023/01/09 08:26:05;;;;;;;5.68;3.20;;;14.90;93.30;;;;;;5055210;28;20045;-68
2023/01/09 08:28:31;;;;;;;7.00;3.10;;;14.90;93.30;;;;;;5055648;28;20171;-69
2023/01/09 08:30:57;;;;;;;6.72;2.92;;;;;;;;;;5034173;28;20458;-67
2023/01/09 08:33:23;;;;;;;5.15;2.88;;;;;;;;;;5055657;28;20060;-70
2023/01/09 08:35:49;;;;;;;7.18;2.90;;;15.00;93.30;;;;;;5037408;28;20132;-70
2023/01/09 08:38:14;;;;;;;6.78;3.08;;;14.70;93.20;;;;;;5054595;28;20195;-69
2023/01/09 08:40:40;;;;;;;5.63;2.92;;;;;;;;;;5037439;28;20037;-70
2023/01/09 08:48:27;;;;;;;6.07;2.40;;;14.90;93.30;;;;;;5054168;28;20047;-69
2023/01/09 08:50:53;;;;;;;5.82;2.83;;;;;;;;;;5055180;28;20550;-68
2023/01/09 08:53:19;;;;;;;5.90;2.78;;;15.00;93.30;;;;;;5061354;28;20119;-70
2023/01/09 08:55:45;;;;;;;5.22;2.38;;;15.10;93.30;;;;;;5057835;28;20056;-70
2023/01/09 08:58:11;;;;;;;4.65;2.58;;;14.80;93.30;;;;;;5075371;28;20090;-70
2023/01/09 09:00:36;;;;;;;4.68;2.33;;;14.80;93.20;;;;;;5057437;28;20115;-69
2023/01/09 09:03:02;;;;;;;4.80;2.50;;;15.10;92.00;;;;;;5055363;28;20045;-70
2023/01/09 09:05:29;;;;;;;10.82;2.40;;;14.90;93.20;;;;;;5054827;28;20140;-69
2023/01/09 09:07:54;;;;;;;5.85;2.90;;;15.00;93.30;;;;;;5054914;28;20052;-70
2023/01/09 09:10:27;;;;;;;6.22;2.90;;;14.90;91.80;;;;;;5048865;28;20040;-63
2023/01/09 09:12:54;;;;;;;4.70;2.13;;;14.50;93.10;;;;;;5037168;28;20493;-71
2023/01/09 09:15:23;;;;;;;5.95;2.25;;;14.90;93.20;;;;;;5054991;28;20136;-71
2023/01/09 09:18:08;;;;;;;6.63;2.17;;;14.60;91.90;;;;;;5037797;28;20041;-70
2023/01/09 09:20:35;;;;;;;7.30;2.70;;;14.60;93.10;;;;;;5055546;28;20052;-70
2023/01/09 09:23:01;;;;;;;5.03;2.40;;;14.90;93.20;;;;;;5054493;28;20041;-69
2023/01/09 09:25:27;;;;;;;6.72;2.35;;;14.60;91.90;;;;;;5054852;28;20055;-69
2023/01/09 09:27:55;;;;;;;6.60;3.05;;;;;;;;;;5054771;28;20048;-70
2023/01/09 09:30:22;;;;;;;4.47;2.22;;;14.90;93.10;;;;;;5053575;28;20049;-71
2023/01/09 09:32:48;;;;;;;4.80;2.03;;;14.90;93.20;;;;;;5054352;28;20498;-69
2023/01/09 09:35:16;;;;;;;5.93;2.47;;;14.90;93.20;;;;;;5036527;28;20123;-71
2023/01/09 09:37:42;;;;;;;6.65;2.30;;;15.10;93.20;;;;;;5036241;28;20067;-70
2023/01/09 09:40:18;;;;;;;6.30;2.20;;;14.70;91.80;;;;;;5054191;28;20441;-70
2023/01/09 09:46:03;;;;;;;5.70;2.30;;;15.20;93.20;;;;;;5019967;28;20396;-71
2023/01/09 09:48:32;;;;;;;4.72;1.98;;;15.10;91.10;;;;;;5039555;28;20037;-69
2023/01/09 09:51:13;;;;;;;6.63;1.98;;;15.10;91.20;;;;;;5034854;28;20044;-70
2023/01/09 09:53:39;;;;;;;5.55;2.03;;;;;;;;;;5034679;28;20053;-69
2023/01/09 09:56:07;;;;;;;5.53;1.85;;;;;;;;;;5053292;28;20487;-69
2023/01/09 09:59:08;;;;;;;4.90;2.05;;;14.90;91.90;;;;;;5019682;28;20059;-70
2023/01/09 10:01:59;;;;;;;5.03;1.98;;;14.90;93.10;;;;;;5019500;28;20124;-71
2023/01/09 10:04:26;;;;;;;5.13;2.00;;;14.80;93.10;;;;;;5036900;28;20053;-70
2023/01/09 10:07:08;;;;;;;5.25;2.20;;;14.90;93.20;;;;;;5036347;28;20076;-70
2023/01/09 10:09:59;;;;;;;4.55;1.95;;;14.90;91.30;;;;;;5036227;28;20167;-69
2023/01/09 10:12:29;;;;;;;5.70;2.05;;;14.90;92.50;;;;;;5038296;28;20064;-73
2023/01/09 10:14:59;;;;;;;4.45;2.13;;;15.00;91.80;;;;;;5053928;28;20045;-70
2023/01/09 10:17:43;;;;;;;3.85;1.80;;;14.80;91.80;;;;;;5053930;28;20074;-69
2023/01/09 10:20:26;;;;;;;4.80;1.88;;;;;;;;;;5037336;28;20166;-68
2023/01/09 10:23:02;;;;;;;4.60;1.77;;;;;;;;;;5016381;28;20049;-66
2023/01/09 10:25:39;;;;;;;5.53;2.00;;;;;;;;;;5027993;28;20486;-68
2023/01/09 10:28:20;;;;;;;3.50;1.70;;;14.90;91.80;;;;;;5052516;28;20044;-68
2023/01/09 10:30:50;;;;;;;5.60;2.13;;;15.00;93.10;;;;;;5034353;28;20057;-67
2023/01/09 10:33:19;;;;;;;7.03;1.75;;;14.90;93.10;;;;;;5035011;28;20052;-71
2023/01/09 10:36:20;;;;;;;4.18;1.85;;;15.10;91.30;;;;;;5052441;28;20098;-69
2023/01/09 10:38:48;;;;;;;5.18;1.83;;;15.20;93.10;;;;;;5032786;28;20075;-69
2023/01/09 10:41:20;;;;;;;6.28;1.83;;;14.90;91.70;;;;;;5023789;28;20077;-69
2023/01/09 10:43:56;;;;;;;6.30;1.90;;;15.20;91.80;;;;;;5013810;28;20052;-70
2023/01/09 10:46:25;;;;;;;4.55;1.70;;;15.00;93.10;;;;;;5037711;28;20041;-70
2023/01/09 10:48:54;;;;;;;4.07;1.70;;;15.00;93.10;;;;;;5052690;28;20045;-70
2023/01/09 10:51:21;;;;;;;4.28;1.77;;;14.90;91.60;;;;;;5013205;28;20539;-73
2023/01/09 10:53:51;;;;;;;4.78;2.10;;;15.10;91.80;;;;;;5030568;28;20037;-71
2023/01/09 10:56:20;;;;;;;4.60;1.73;;;15.00;93.00;;;;;;5034190;28;20045;-74
2023/01/09 10:58:46;;;;;;;7.22;1.92;;;;;;;;;;5047250;28;20052;-74
2023/01/09 11:01:12;;;;;;;4.30;1.80;;;;;;;;;;5032073;28;20053;-71
2023/01/09 11:03:39;;;;;;;4.25;1.70;;;;;;;;;;5031677;28;20380;-71
2023/01/09 11:06:17;;;;;;;4.68;1.75;;;15.10;93.00;;;;;;5054644;28;20041;-71
2023/01/09 11:08:43;;;;;;;5.65;1.85;;;;;;;;;;5053645;28;20049;-73
2023/01/09 11:11:09;;;;;;;5.80;1.80;;;15.10;93.10;;;;;;5039470;28;20099;-71
2023/01/09 11:13:37;;;;;;;5.85;1.70;;;15.10;93.10;;;;;;5020734;28;20071;-70
2023/01/09 11:16:09;;;;;;;5.53;2.05;;;15.00;93.40;;;;;;5033154;28;20052;-71
2023/01/09 11:18:58;;;;;;;5.32;1.70;;;15.10;91.90;;;;;;5033614;28;20042;-71
2023/01/09 11:21:39;;;;;;;3.58;1.80;;;15.10;93.10;;;;;;5002986;28;20057;-71
2023/01/09 11:24:20;;;;;;;6.07;2.13;;;15.30;91.30;;;;;;5049825;28;20052;-70
2023/01/09 11:26:50;;;;;;;5.13;1.88;;;15.00;91.90;;;;;;5053136;28;20447;-70
2023/01/09 11:29:22;;;;;;;3.63;1.70;;;15.10;93.10;;;;;;5034932;28;20139;-71
2023/01/09 11:31:58;;;;;;;5.50;1.80;;;;;;;;;;5053002;28;20076;-70
2023/01/09 11:34:28;;;;;;;5.35;2.03;;;;;;;;;;5036072;28;20049;-74
2023/01/09 11:37:10;;;;;;;4.75;1.90;;;15.10;91.80;;;;;;5016164;28;20119;-71
2023/01/09 11:39:40;;;;;;;3.40;1.50;;;15.10;91.50;;;;;;5049984;28;20072;-69
2023/01/09 11:42:06;;;;;;;3.90;1.50;;;15.20;93.20;;;;;;5055727;28;20060;-70
2023/01/09 11:44:32;;;;;;;5.45;1.95;;;;;;;;;;5018612;28;20121;-70
2023/01/09 11:46:58;;;;;;;4.75;1.60;;;;;;;;;;5051090;28;20040;-69
2023/01/09 11:49:28;;;;;;;4.72;1.60;;;15.30;91.90;;;;;;5042113;28;20052;-71
2023/01/09 11:52:25;;;;;;;6.80;1.83;;;15.20;92.10;;;;;;5059067;28;20048;-70
2023/01/09 11:54:59;;;;;;;5.18;1.92;;;15.20;91.60;;;;;;4995184;28;20185;-71
2023/01/09 11:57:25;;;;;;;4.18;1.65;;;15.10;93.20;;;;;;4959745;28;20051;-70
2023/01/09 11:59:53;;;;;;;4.72;1.70;;;15.20;93.40;;;;;;4942753;28;20047;-68
2023/01/09 12:02:24;;;;;;;3.17;1.50;;;15.20;93.30;;;;;;4975267;28;20050;-69
2023/01/09 12:05:08;;;;;;;7.15;1.77;;;15.20;91.40;;;;;;4976249;28;20493;-69
2023/01/09 12:07:48;;;;;;;3.97;1.48;;;14.80;93.20;;;;;;4974442;28;20470;-70
2023/01/09 12:10:29;;;;;;;4.60;2.08;;;15.20;93.30;;;;;;4959245;28;20054;-69
2023/01/09 12:13:01;;;;;;;5.78;2.00;;;15.00;93.40;;;;;;4963116;28;20523;-71
2023/01/09 12:15:38;;;;;;;5.93;1.90;;;;;;;;;;4961011;28;20264;-71
2023/01/09 12:18:33;;;;;;;3.97;1.67;;;15.30;92.20;;;;;;4958402;28;20059;-71
2023/01/09 12:21:13;;;;;;;3.75;1.70;;;15.20;91.50;;;;;;4974437;28;20186;-71
2023/01/09 12:23:45;;;;;;;4.55;1.70;;;;;;;;;;4974969;28;20129;-69
2023/01/09 12:26:34;;;;;;;2.95;1.40;;;15.40;92.20;;;;;;4975075;28;20035;-70
2023/01/09 12:29:21;;;;;;;3.03;1.40;;;15.20;91.40;;;;;;4965728;28;20058;-69
2023/01/09 12:31:56;;;;;;;3.65;1.45;;;;;;;;;;5000285;28;20055;-71
2023/01/09 12:34:47;;;;;;;3.58;1.50;;;15.40;91.50;;;;;;5018656;28;20048;-72
2023/01/09 12:37:45;;;;;;;4.38;1.70;;;15.00;92.10;;;;;;5034450;28;20422;-71
2023/01/09 12:40:32;;;;;;;3.72;1.50;;;;;;;;;;5034389;28;20049;-70
2023/01/09 12:43:04;;;;;;;4.97;1.60;;;;;;;;;;5048573;28;20079;-70
2023/01/09 12:46:08;;;;;;;3.80;1.60;;;15.30;92.30;;;;;;5054249;28;20513;-70
2023/01/09 12:49:07;;;;;;;3.22;1.30;;;15.30;91.60;;;;;;4966096;28;20056;-71
2023/01/09 12:52:00;;;;;;;2.92;1.48;;;15.60;93.50;;;;;;4974648;28;20436;-69
2023/01/09 12:54:33;;;;;;;3.42;1.50;;;;;;;;;;4974739;28;20078;-70
2023/01/09 12:57:03;;;;;;;;;;;15.40;92.30;;;;;;4974841;28;20114;-71
2023/01/09 12:59:33;;;;;;;3.70;1.45;;;15.30;93.50;;;;;;4957926;28;19922;-71
2023/01/09 13:02:26;;;;;;;4.10;1.38;;;15.30;92.30;;;;;;4943375;28;20082;-69
2023/01/09 13:04:59;;;;;;;3.50;1.55;;;15.20;92.30;;;;;;4991090;28;20057;-70
2023/01/09 13:08:00;;;;;;;3.13;1.48;;;15.20;91.50;;;;;;4964215;28;20043;-70
2023/01/09 13:10:33;;;;;;;4.15;1.70;;;;;;;;;;4973892;28;20058;-71
2023/01/09 13:13:05;;;;;;;3.47;1.25;;;15.10;93.40;;;;;;4955073;28;20106;-67
2023/01/09 13:15:41;;;;;;;4.32;1.70;;;15.30;91.60;;;;;;4958696;28;20078;-72
2023/01/09 13:18:18;;;;;;;7.07;1.65;;;15.30;91.50;;;;;;4973446;28;20042;-72
2023/01/09 13:20:55;;;;;;;5.35;1.92;;;15.30;93.50;;;;;;4957826;28;20567;-71
2023/01/09 13:23:26;;;;;;;3.47;1.40;;;15.10;93.50;;;;;;5020857;28;20455;-71
2023/01/09 13:25:53;;;;;;;3.75;1.67;;;15.00;93.50;;;;;;5029420;28;20050;-71
2023/01/09 13:28:21;;;;;;;4.20;1.52;;;15.20;93.50;;;;;;5010771;28;20038;-70
2023/01/09 13:31:07;;;;;;;3.65;1.42;;;15.40;91.80;;;;;;5032838;28;20092;-70
2023/01/09 13:33:38;;;;;;;3.80;1.75;;;15.50;93.70;;;;;;5041780;28;20103;-72
2023/01/09 13:36:04;;;;;;;3.60;1.50;;;15.20;93.60;;;;;;5053539;28;20053;-70
2023/01/09 13:38:31;;;;;;;3.75;1.65;;;15.20;93.50;;;;;;5039707;28;20395;-70